createdAt,value
2022-08-26T00:00:12.544Z,12.37
2022-08-26T00:02:43.821Z,13.55
2022-08-26T00:05:16.126Z,12.85
2022-08-26T00:07:48.641Z,13.25
2022-08-26T00:10:21.846Z,13.65
2022-08-26T00:12:55.595Z,13.20
2022-08-26T00:15:28.506Z,12.45
2022-08-26T00:18:00.735Z,12.88
2022-08-26T00:20:35.175Z,13.65
2022-08-26T00:25:42.600Z,14.33
2022-08-26T00:28:15.142Z,12.95
2022-08-26T00:30:49.371Z,14.25
2022-08-26T00:33:23.286Z,13.98
2022-08-26T00:35:55.383Z,15.55
2022-08-26T00:38:27.651Z,14.13
2022-08-26T00:41:01.842Z,12.58
2022-08-26T00:43:47.271Z,13.43
2022-08-26T00:46:13.768Z,13.72
2022-08-26T00:48:49.249Z,13.68
2022-08-26T00:51:29.721Z,13.22
2022-08-26T00:54:03.823Z,13.83
2022-08-26T00:56:41.763Z,14.28
2022-08-26T00:59:15.781Z,14.10
2022-08-26T01:01:50.006Z,13.48
2022-08-26T01:04:24.144Z,13.78
2022-08-26T01:06:58.206Z,14.60
2022-08-26T01:09:30.668Z,13.93
2022-08-26T01:12:04.094Z,13.95
2022-08-26T01:14:38.161Z,14.57
2022-08-26T01:17:11.999Z,14.10
2022-08-26T01:19:47.120Z,13.35
2022-08-26T01:22:26.633Z,13.20
2022-08-26T01:25:03.554Z,13.55
2022-08-26T01:27:37.001Z,13.72
2022-08-26T01:30:11.490Z,13.72
2022-08-26T01:32:45.126Z,13.88
2022-08-26T01:35:18.105Z,13.60
2022-08-26T01:37:54.744Z,13.18
2022-08-26T01:40:31.496Z,12.98
2022-08-26T01:43:05.934Z,12.98
2022-08-26T01:48:15.017Z,12.05
2022-08-26T01:50:49.311Z,12.35
2022-08-26T01:53:24.546Z,13.68
2022-08-26T01:56:00.296Z,13.48
2022-08-26T01:58:39.259Z,13.03
2022-08-26T02:01:14.800Z,13.30
2022-08-26T02:04:08.785Z,13.18
2022-08-26T02:06:42.030Z,13.75
2022-08-26T02:09:16.127Z,13.72
2022-08-26T02:11:51.196Z,13.00
2022-08-26T02:14:30.006Z,14.10
2022-08-26T02:17:04.105Z,14.05
2022-08-26T02:19:44.016Z,13.03
2022-08-26T02:22:19.778Z,14.10
2022-08-26T02:24:58.679Z,14.50
2022-08-26T02:27:35.217Z,13.53
2022-08-26T02:30:14.042Z,14.30
2022-08-26T02:32:47.179Z,13.15
2022-08-26T02:35:24.580Z,14.47
2022-08-26T02:37:57.612Z,14.28
2022-08-26T02:40:33.939Z,13.00
2022-08-26T02:43:09.938Z,14.23
2022-08-26T02:45:43.686Z,13.95
2022-08-26T02:48:19.340Z,14.50
2022-08-26T02:50:52.569Z,14.90
2022-08-26T02:53:25.744Z,13.18
2022-08-26T02:55:58.716Z,14.13
2022-08-26T02:58:32.775Z,14.98
2022-08-26T03:01:05.885Z,13.53
2022-08-26T03:03:39.388Z,14.00
2022-08-26T03:06:12.240Z,14.30
2022-08-26T03:08:45.401Z,14.47
2022-08-26T03:11:18.916Z,14.25
2022-08-26T03:13:52.058Z,14.95
2022-08-26T03:16:25.248Z,13.90
2022-08-26T03:19:00.891Z,14.83
2022-08-26T03:21:34.126Z,14.78
2022-08-26T03:24:10.105Z,14.78
2022-08-26T03:26:52.400Z,14.55
2022-08-26T03:29:34.289Z,14.43
2022-08-26T03:32:06.436Z,15.08
2022-08-26T03:34:38.766Z,15.60
2022-08-26T03:37:11.072Z,14.68
2022-08-26T03:39:43.221Z,15.00
2022-08-26T03:42:16.079Z,13.40
2022-08-26T03:44:48.458Z,14.53
2022-08-26T03:47:20.792Z,14.95
2022-08-26T03:49:53.251Z,13.53
2022-08-26T03:52:25.712Z,13.93
2022-08-26T03:54:57.879Z,14.30
2022-08-26T03:57:31.366Z,15.00
2022-08-26T04:00:05.857Z,14.40
2022-08-26T04:02:40.143Z,14.00
2022-08-26T04:05:14.148Z,14.35
2022-08-26T04:07:46.695Z,13.85
2022-08-26T04:10:29.192Z,13.43
2022-08-26T04:13:01.419Z,14.18
2022-08-26T04:15:34.090Z,14.00
2022-08-26T04:18:06.946Z,14.63
2022-08-26T04:20:39.268Z,14.60
2022-08-26T04:23:11.747Z,14.78
2022-08-26T04:25:44.032Z,14.28
2022-08-26T04:28:16.564Z,14.83
2022-08-26T04:30:47.956Z,14.68
2022-08-26T04:33:19.529Z,13.88
2022-08-26T04:35:56.355Z,14.33
2022-08-26T04:38:29.291Z,13.95
2022-08-26T04:41:01.655Z,13.93
2022-08-26T04:43:34.187Z,13.22
2022-08-26T04:46:07.523Z,13.43
2022-08-26T04:48:41.531Z,12.63
2022-08-26T04:51:13.684Z,14.73
2022-08-26T04:53:46.271Z,14.10
2022-08-26T04:56:18.634Z,14.65
2022-08-26T04:58:51.013Z,14.18
2022-08-26T05:01:23.862Z,13.58
2022-08-26T05:03:56.438Z,14.13
2022-08-26T05:06:28.968Z,12.70
2022-08-26T05:09:02.962Z,12.25
2022-08-26T05:11:35.842Z,12.95
2022-08-26T05:14:08.426Z,12.58
2022-08-26T05:16:40.711Z,13.20
2022-08-26T05:19:13.400Z,11.48
2022-08-26T05:21:47.917Z,11.80
2022-08-26T05:24:20.774Z,10.85
2022-08-26T05:26:53.244Z,10.45
2022-08-26T05:29:25.452Z,10.23
2022-08-26T05:31:58.043Z,10.50
2022-08-26T05:34:30.498Z,9.08
2022-08-26T05:37:02.968Z,8.33
2022-08-26T05:39:36.468Z,8.25
2022-08-26T05:42:08.877Z,8.85
2022-08-26T05:44:54.081Z,9.08
2022-08-26T05:47:15.500Z,9.40
2022-08-26T05:49:51.604Z,8.65
2022-08-26T05:52:22.193Z,7.85
2022-08-26T05:54:56.069Z,7.65
2022-08-26T05:57:30.005Z,8.33
2022-08-26T06:00:02.492Z,8.10
2022-08-26T06:02:36.292Z,7.05
2022-08-26T06:05:09.215Z,7.53
2022-08-26T06:07:59.304Z,6.95
2022-08-26T06:10:33.129Z,8.48
2022-08-26T06:13:11.811Z,6.15
2022-08-26T06:15:47.142Z,6.53
2022-08-26T06:18:22.688Z,6.87
2022-08-26T06:20:57.987Z,6.47
2022-08-26T06:23:48.916Z,6.30
2022-08-26T06:26:21.480Z,6.35
2022-08-26T06:28:55.834Z,9.08
2022-08-26T06:31:28.430Z,6.12
2022-08-26T06:34:02.074Z,7.37
2022-08-26T06:36:35.126Z,6.62
2022-08-26T06:39:12.534Z,6.92
2022-08-26T06:41:45.820Z,7.42
2022-08-26T06:44:20.957Z,5.92
2022-08-26T06:46:53.650Z,8.08
2022-08-26T06:49:27.510Z,6.30
2022-08-26T06:52:00.372Z,6.45
2022-08-26T06:54:32.804Z,13.15
2022-08-26T06:57:05.209Z,6.12
2022-08-26T06:59:39.339Z,5.25
2022-08-26T07:02:13.562Z,5.70
2022-08-26T07:04:47.917Z,6.10
2022-08-26T07:09:53.001Z,6.87
2022-08-26T07:12:26.719Z,5.87
2022-08-26T07:14:59.005Z,5.00
2022-08-26T07:17:32.788Z,5.10
2022-08-26T07:20:09.495Z,7.65
2022-08-26T07:22:42.497Z,5.30
2022-08-26T07:25:14.793Z,5.30
2022-08-26T07:27:53.966Z,5.55
2022-08-26T07:30:22.653Z,5.53
2022-08-26T07:32:57.401Z,6.12
2022-08-26T07:35:30.502Z,5.25
2022-08-26T07:38:02.886Z,5.00
2022-08-26T07:40:35.834Z,5.20
2022-08-26T07:43:09.761Z,5.28
2022-08-26T07:48:15.037Z,5.53
2022-08-26T07:50:50.381Z,6.60
2022-08-26T07:55:56.318Z,5.70
2022-08-26T07:58:29.149Z,6.15
2022-08-26T08:01:02.123Z,6.35
2022-08-26T08:03:36.129Z,7.03
2022-08-26T08:06:11.152Z,5.62
2022-08-26T08:08:43.187Z,6.10
2022-08-26T08:11:15.903Z,5.45
2022-08-26T08:13:49.824Z,6.75
2022-08-26T08:16:24.600Z,5.50
2022-08-26T08:18:58.470Z,6.40
2022-08-26T08:24:02.765Z,5.30
2022-08-26T08:26:35.636Z,5.37
2022-08-26T08:29:09.033Z,4.80
2022-08-26T08:31:58.297Z,6.58
2022-08-26T08:34:15.666Z,4.15
2022-08-26T08:36:47.815Z,4.00
2022-08-26T08:39:20.176Z,5.30
2022-08-26T08:42:16.756Z,5.20
2022-08-26T08:44:52.507Z,4.85
2022-08-26T08:47:33.923Z,5.05
2022-08-26T08:50:15.010Z,5.45
2022-08-26T08:52:49.418Z,4.60
2022-08-26T08:58:02.466Z,4.53
2022-08-26T09:00:49.301Z,5.05
2022-08-26T09:03:45.303Z,6.12
2022-08-26T09:06:18.943Z,5.47
2022-08-26T09:08:52.748Z,5.83
2022-08-26T09:11:25.173Z,5.23
2022-08-26T09:13:57.851Z,5.45
2022-08-26T09:19:23.126Z,4.85
2022-08-26T09:22:04.647Z,5.07
2022-08-26T09:24:41.698Z,5.10
2022-08-26T09:27:11.701Z,7.75
2022-08-26T09:29:45.871Z,4.95
2022-08-26T09:32:27.135Z,6.55
2022-08-26T09:35:02.933Z,5.78
2022-08-26T09:37:41.128Z,4.90
2022-08-26T09:40:23.450Z,5.55
2022-08-26T09:43:22.909Z,4.37
2022-08-26T09:45:59.568Z,4.08
2022-08-26T09:48:36.052Z,4.08
2022-08-26T09:51:10.526Z,4.53
2022-08-26T09:53:54.736Z,4.75
2022-08-26T09:56:33.759Z,4.80
2022-08-26T09:59:08.104Z,4.75
2022-08-26T10:01:44.995Z,5.00
2022-08-26T10:04:23.602Z,4.92
2022-08-26T10:07:04.671Z,4.90
2022-08-26T10:09:44.919Z,6.08
2022-08-26T10:12:21.501Z,5.85
2022-08-26T10:14:59.182Z,5.92
2022-08-26T10:17:37.220Z,5.60
2022-08-26T10:20:23.097Z,5.05
2022-08-26T10:23:11.177Z,5.60
2022-08-26T10:25:54.322Z,5.10
2022-08-26T10:28:46.805Z,5.33
2022-08-26T10:31:30.527Z,6.17
2022-08-26T10:34:07.126Z,5.20
2022-08-26T10:37:13.744Z,5.40
2022-08-26T10:39:29.127Z,5.28
2022-08-26T10:42:05.675Z,4.70
2022-08-26T10:44:43.827Z,5.22
2022-08-26T10:47:22.736Z,5.10
2022-08-26T10:50:02.994Z,5.40
2022-08-26T10:52:50.619Z,5.05
2022-08-26T10:55:35.754Z,5.70
2022-08-26T10:58:26.109Z,5.78
2022-08-26T11:01:24.474Z,5.85
2022-08-26T11:04:19.625Z,5.60
2022-08-26T11:07:31.696Z,6.20
2022-08-26T11:10:14.167Z,6.05
2022-08-26T11:12:53.659Z,5.22
2022-08-26T11:15:29.643Z,5.37
2022-08-26T11:18:08.021Z,5.25
2022-08-26T11:20:45.201Z,4.75
2022-08-26T11:23:27.742Z,4.40
2022-08-26T11:26:12.363Z,4.00
2022-08-26T11:28:51.442Z,4.10
2022-08-26T11:31:31.766Z,4.22
2022-08-26T11:34:07.244Z,4.20
2022-08-26T11:36:45.585Z,5.15
2022-08-26T11:39:28.938Z,4.92
2022-08-26T11:42:04.937Z,4.40
2022-08-26T11:44:49.682Z,4.47
2022-08-26T11:47:19.998Z,4.20
2022-08-26T11:50:14.093Z,4.42
2022-08-26T11:53:07.650Z,4.70
2022-08-26T11:55:43.634Z,4.62
2022-08-26T11:58:17.186Z,4.22
2022-08-26T12:01:00.269Z,4.90
2022-08-26T12:03:48.004Z,4.58
2022-08-26T12:09:02.699Z,4.65
2022-08-26T12:11:39.266Z,5.10
2022-08-26T12:14:25.096Z,4.20
2022-08-26T12:17:03.338Z,4.58
2022-08-26T12:19:36.539Z,4.72
2022-08-26T12:22:30.755Z,5.62
2022-08-26T12:25:06.767Z,4.37
2022-08-26T12:27:45.329Z,4.40
2022-08-26T12:30:26.585Z,4.17
2022-08-26T12:33:21.960Z,4.12
2022-08-26T12:35:43.876Z,3.60
2022-08-26T12:38:16.992Z,3.58
2022-08-26T12:40:50.671Z,3.45
2022-08-26T12:46:21.107Z,3.83
2022-08-26T12:48:53.992Z,4.10
2022-08-26T12:51:30.649Z,3.55
2022-08-26T12:54:05.849Z,3.55
2022-08-26T12:56:40.680Z,3.83
2022-08-26T12:59:23.178Z,3.92
2022-08-26T13:01:56.754Z,3.72
2022-08-26T13:04:38.633Z,3.72
2022-08-26T13:07:17.090Z,4.03
2022-08-26T13:09:51.055Z,4.37
2022-08-26T13:12:41.322Z,3.12
2022-08-26T13:15:14.531Z,3.50
2022-08-26T13:17:47.312Z,3.65
2022-08-26T13:20:20.694Z,3.67
2022-08-26T13:22:58.836Z,3.72
2022-08-26T13:25:28.248Z,4.00
2022-08-26T13:28:01.002Z,3.60
2022-08-26T13:30:33.635Z,4.65
2022-08-26T13:33:09.075Z,4.40
2022-08-26T13:35:43.625Z,3.83
2022-08-26T13:38:22.315Z,3.58
2022-08-26T13:40:50.982Z,4.37
2022-08-26T13:43:24.366Z,4.10
2022-08-26T13:45:57.073Z,3.65
2022-08-26T13:48:29.944Z,3.45
2022-08-26T13:51:03.290Z,3.72
2022-08-26T13:53:37.887Z,3.90
2022-08-26T13:56:12.498Z,3.77
2022-08-26T13:58:45.335Z,3.45
2022-08-26T14:01:19.974Z,3.05
2022-08-26T14:03:53.011Z,4.33
2022-08-26T14:06:26.100Z,4.47
2022-08-26T14:08:58.886Z,4.20
2022-08-26T14:11:41.245Z,3.70
2022-08-26T14:14:06.397Z,4.62
2022-08-26T14:16:58.839Z,4.05
2022-08-26T14:19:15.393Z,3.90
2022-08-26T14:21:48.409Z,4.00
2022-08-26T14:24:22.158Z,3.52
2022-08-26T14:26:54.845Z,4.30
2022-08-26T14:29:27.814Z,4.13
2022-08-26T14:32:03.618Z,4.92
2022-08-26T14:34:36.686Z,3.98
2022-08-26T14:37:13.544Z,4.93
2022-08-26T14:39:44.980Z,5.53
2022-08-26T14:42:20.883Z,4.35
2022-08-26T14:44:57.747Z,4.40
2022-08-26T14:47:31.064Z,4.53
2022-08-26T14:50:04.545Z,5.30
2022-08-26T14:52:38.769Z,5.35
2022-08-26T14:55:12.059Z,4.70
2022-08-26T14:57:44.861Z,5.28
2022-08-26T15:00:18.672Z,5.03
2022-08-26T15:05:24.735Z,4.60
2022-08-26T15:07:57.683Z,5.37
2022-08-26T15:10:30.486Z,4.47
2022-08-26T15:13:03.779Z,5.00
2022-08-26T15:15:37.776Z,5.12
2022-08-26T15:18:11.009Z,4.40
2022-08-26T15:20:44.627Z,5.07
2022-08-26T15:23:17.833Z,6.00
2022-08-26T15:25:51.241Z,5.00
2022-08-26T15:28:24.517Z,4.70
2022-08-26T15:30:57.706Z,5.07
2022-08-26T15:33:30.565Z,5.25
2022-08-26T15:36:04.783Z,5.10
2022-08-26T15:38:41.417Z,5.53
2022-08-26T15:41:14.431Z,4.95
2022-08-26T15:43:47.284Z,5.53
2022-08-26T15:46:21.002Z,4.92
2022-08-26T15:48:54.134Z,5.67
2022-08-26T15:51:45.684Z,5.10
2022-08-26T15:54:11.497Z,5.10
2022-08-26T15:56:44.477Z,5.10
2022-08-26T15:59:17.531Z,5.20
2022-08-26T16:01:50.335Z,5.53
2022-08-26T16:04:23.092Z,6.33
2022-08-26T16:06:56.141Z,5.53
2022-08-26T16:09:30.286Z,5.35
2022-08-26T16:12:03.185Z,5.30
2022-08-26T16:14:36.670Z,5.00
2022-08-26T16:17:09.452Z,4.45
2022-08-26T16:19:42.593Z,5.10
2022-08-26T16:22:15.416Z,4.90
2022-08-26T16:24:48.591Z,6.83
2022-08-26T16:27:23.054Z,4.65
2022-08-26T16:29:55.843Z,6.17
2022-08-26T16:32:31.243Z,4.70
2022-08-26T16:35:03.394Z,4.72
2022-08-26T16:37:37.768Z,5.22
2022-08-26T16:40:11.947Z,4.75
2022-08-26T16:42:45.105Z,5.10
2022-08-26T16:45:18.538Z,5.45
2022-08-26T16:47:52.240Z,4.62
2022-08-26T16:50:25.669Z,5.50
2022-08-26T16:52:58.488Z,4.80
2022-08-26T16:55:31.681Z,5.30
2022-08-26T16:58:05.044Z,4.70
2022-08-26T17:00:38.018Z,5.62
2022-08-26T17:03:11.332Z,5.15
2022-08-26T17:05:44.644Z,4.97
2022-08-26T17:08:21.844Z,5.00
2022-08-26T17:10:54.884Z,5.62
2022-08-26T17:13:35.439Z,5.15
2022-08-26T17:16:04.271Z,5.25
2022-08-26T17:18:37.294Z,4.53
2022-08-26T17:21:11.777Z,5.05
2022-08-26T17:23:45.238Z,5.60
2022-08-26T17:26:17.749Z,5.90
2022-08-26T17:28:50.684Z,5.40
2022-08-26T17:31:23.865Z,5.83
2022-08-26T17:33:56.134Z,5.25
2022-08-26T17:36:28.584Z,5.95
2022-08-26T17:39:01.277Z,5.33
2022-08-26T17:41:35.502Z,5.40
2022-08-26T17:44:08.418Z,5.25
2022-08-26T17:49:13.608Z,5.30
2022-08-26T17:51:45.767Z,5.65
2022-08-26T17:54:18.051Z,5.15
2022-08-26T17:56:50.123Z,5.78
2022-08-26T17:59:22.361Z,5.70
2022-08-26T18:01:55.639Z,5.80
2022-08-26T18:04:28.007Z,5.42
2022-08-26T18:07:00.108Z,5.90
2022-08-26T18:09:33.416Z,5.87
2022-08-26T18:12:06.551Z,6.22
2022-08-26T18:14:39.454Z,6.08
2022-08-26T18:17:11.558Z,13.45
2022-08-26T18:19:45.464Z,5.95
2022-08-26T18:22:17.586Z,5.78
2022-08-26T18:24:52.822Z,7.37
2022-08-26T18:27:23.902Z,6.42
2022-08-26T18:29:56.521Z,7.42
2022-08-26T18:32:28.686Z,7.25
2022-08-26T18:35:00.771Z,10.90
2022-08-26T18:37:34.184Z,7.55
2022-08-26T18:40:08.355Z,8.55
2022-08-26T18:42:41.528Z,7.25
2022-08-26T18:45:16.411Z,7.55
2022-08-26T18:47:49.534Z,7.80
2022-08-26T18:50:22.438Z,8.53
2022-08-26T18:52:54.767Z,8.45
2022-08-26T18:55:27.563Z,8.98
2022-08-26T18:57:59.764Z,9.38
2022-08-26T19:00:31.880Z,9.03
2022-08-26T19:03:04.547Z,8.70
2022-08-26T19:05:40.159Z,8.58
2022-08-26T19:08:12.667Z,8.43
2022-08-26T19:10:45.086Z,9.15
2022-08-26T19:13:17.212Z,9.35
2022-08-26T19:15:49.667Z,8.28
2022-08-26T19:18:21.808Z,8.33
2022-08-26T19:20:53.883Z,8.75
2022-08-26T19:23:32.088Z,9.38
2022-08-26T19:26:04.519Z,9.08
2022-08-26T19:28:37.454Z,9.28
2022-08-26T19:31:12.729Z,7.65
2022-08-26T19:33:45.929Z,7.22
2022-08-26T19:36:21.899Z,8.35
2022-08-26T19:38:56.134Z,8.48
2022-08-26T19:41:37.497Z,9.33
2022-08-26T19:44:07.692Z,9.65
2022-08-26T19:46:41.902Z,8.98
2022-08-26T19:49:14.079Z,10.83
2022-08-26T19:51:46.175Z,9.68
2022-08-26T19:54:18.719Z,9.73
2022-08-26T19:56:50.753Z,9.43
2022-08-26T19:59:22.989Z,10.18
2022-08-26T20:02:01.294Z,9.43
2022-08-26T20:04:28.924Z,8.55
2022-08-26T20:07:02.773Z,9.75
2022-08-26T20:09:36.872Z,9.15
2022-08-26T20:12:09.449Z,8.75
2022-08-26T20:14:41.624Z,8.93
2022-08-26T20:17:14.445Z,10.20
2022-08-26T20:20:04.515Z,10.03
2022-08-26T20:22:37.492Z,10.28
2022-08-26T20:25:10.168Z,10.63
2022-08-26T20:27:44.058Z,10.43
2022-08-26T20:30:17.066Z,8.88
2022-08-26T20:32:49.605Z,9.15
2022-08-26T20:35:21.730Z,9.13
2022-08-26T20:37:53.980Z,10.28
2022-08-26T20:40:26.552Z,11.53
2022-08-26T20:42:58.937Z,10.43
2022-08-26T20:45:31.339Z,9.33
2022-08-26T20:48:03.980Z,10.23
2022-08-26T20:50:36.393Z,8.80
2022-08-26T20:53:09.266Z,8.18
2022-08-26T20:55:42.145Z,10.15
2022-08-26T20:58:14.470Z,10.00
2022-08-26T21:00:46.705Z,9.05
2022-08-26T21:03:18.868Z,8.45
2022-08-26T21:05:52.387Z,8.73
2022-08-26T21:08:24.417Z,8.28
2022-08-26T21:10:57.342Z,8.58
2022-08-26T21:13:42.942Z,7.97
2022-08-26T21:16:03.769Z,8.63
2022-08-26T21:18:36.885Z,8.00
2022-08-26T21:21:10.571Z,9.85
2022-08-26T21:23:42.720Z,9.27
2022-08-26T21:26:16.846Z,9.28
2022-08-26T21:28:49.165Z,8.90
2022-08-26T21:31:23.988Z,8.70
2022-08-26T21:33:57.074Z,9.53
2022-08-26T21:36:29.600Z,9.63
2022-08-26T21:39:02.250Z,9.23
2022-08-26T21:41:34.456Z,9.73
2022-08-26T21:44:06.760Z,9.30
2022-08-26T21:46:39.027Z,10.43
2022-08-26T21:49:13.832Z,8.95
2022-08-26T21:51:48.457Z,8.98
2022-08-26T21:54:20.469Z,9.75
2022-08-26T21:56:54.198Z,9.40
2022-08-26T21:59:26.518Z,9.58
2022-08-26T22:01:59.353Z,9.10
2022-08-26T22:04:31.482Z,8.78
2022-08-26T22:07:04.380Z,10.00
2022-08-26T22:09:36.690Z,9.20
2022-08-26T22:12:12.480Z,9.83
2022-08-26T22:14:45.834Z,9.40
2022-08-26T22:17:17.915Z,9.03
2022-08-26T22:19:50.103Z,8.45
2022-08-26T22:22:23.092Z,9.85
2022-08-26T22:24:55.225Z,9.18
2022-08-26T22:27:27.538Z,9.98
2022-08-26T22:29:59.601Z,9.13
2022-08-26T22:32:34.633Z,8.48
2022-08-26T22:35:11.402Z,8.58
2022-08-26T22:37:41.367Z,9.03
2022-08-26T22:40:15.251Z,9.53
2022-08-26T22:42:55.591Z,9.53
2022-08-26T22:45:21.180Z,8.30
2022-08-26T22:47:53.476Z,8.83
2022-08-26T22:50:25.953Z,8.83
2022-08-26T22:52:58.373Z,8.68
2022-08-26T22:55:30.904Z,8.50
2022-08-26T22:58:03.226Z,8.20
2022-08-26T23:00:35.427Z,8.20
2022-08-26T23:03:07.854Z,8.95
2022-08-26T23:05:41.365Z,9.25
2022-08-26T23:08:14.418Z,8.43
2022-08-26T23:10:49.573Z,8.23
2022-08-26T23:13:22.297Z,9.48
2022-08-26T23:16:06.670Z,9.08
2022-08-26T23:18:39.423Z,8.13
2022-08-26T23:21:11.738Z,8.95
2022-08-26T23:23:45.532Z,8.45
2022-08-26T23:28:49.908Z,9.70
2022-08-26T23:31:22.241Z,10.80
2022-08-26T23:34:11.910Z,9.20
2022-08-26T23:36:44.695Z,9.03
2022-08-26T23:39:18.626Z,8.45
2022-08-26T23:41:51.220Z,8.68
2022-08-26T23:44:24.884Z,9.00
2022-08-26T23:46:57.668Z,8.55
2022-08-26T23:49:31.037Z,10.08
2022-08-26T23:52:21.358Z,9.68
2022-08-26T23:54:54.090Z,9.03
2022-08-26T23:57:27.252Z,9.35
2022-08-26T23:59:59.468Z,10.00
